createdAt,value
2018-01-31T01:53:51.279Z,8.07
2018-01-31T01:56:19.072Z,7.83
2018-01-31T01:58:47.020Z,7.90
2018-01-31T02:01:14.860Z,7.90
2018-01-31T02:03:42.666Z,7.23
2018-01-31T02:06:11.097Z,8.13
2018-01-31T02:08:39.331Z,8.00
2018-01-31T02:11:07.344Z,8.07
2018-01-31T02:13:35.180Z,7.90
2018-01-31T02:16:02.956Z,7.83
2018-01-31T02:18:40.851Z,8.27
2018-01-31T02:21:08.767Z,7.90
2018-01-31T02:23:36.532Z,7.30
2018-01-31T02:26:04.301Z,7.37
2018-01-31T02:28:32.027Z,7.40
2018-01-31T02:31:00.599Z,7.07
2018-01-31T02:33:28.441Z,6.80
2018-01-31T02:35:56.286Z,7.90
2018-01-31T02:38:36.106Z,7.47
2018-01-31T02:41:04.749Z,7.53
2018-01-31T02:43:32.717Z,7.57
2018-01-31T02:46:00.574Z,7.90
2018-01-31T02:48:28.338Z,8.47
2018-01-31T02:50:56.307Z,8.13
2018-01-31T02:53:24.174Z,8.00
2018-01-31T02:55:52.041Z,7.37
2018-01-31T02:58:19.840Z,7.17
2018-01-31T03:00:47.682Z,6.50
2018-01-31T03:03:15.430Z,6.93
2018-01-31T03:05:43.201Z,6.90
2018-01-31T03:08:11.014Z,6.53
2018-01-31T03:10:39.593Z,6.27
2018-01-31T03:13:08.127Z,6.93
2018-01-31T03:15:35.875Z,6.50
2018-01-31T03:18:03.699Z,7.03
2018-01-31T03:20:32.311Z,6.70
2018-01-31T03:23:00.103Z,6.70
2018-01-31T03:25:28.102Z,7.13
2018-01-31T03:27:55.887Z,6.80
2018-01-31T03:30:24.442Z,6.30
2018-01-31T03:32:52.182Z,6.27
2018-01-31T03:35:19.899Z,7.30
2018-01-31T03:37:48.411Z,7.50
2018-01-31T03:40:16.184Z,7.00
2018-01-31T03:42:43.933Z,6.87
2018-01-31T03:45:11.772Z,7.40
2018-01-31T03:47:40.440Z,8.00
2018-01-31T03:50:08.397Z,7.40
2018-01-31T03:52:36.166Z,7.40
2018-01-31T03:55:04.466Z,6.50
2018-01-31T03:57:32.158Z,6.37
2018-01-31T04:00:00.019Z,5.93
2018-01-31T04:02:27.863Z,6.07
2018-01-31T04:04:55.615Z,5.30
2018-01-31T04:07:23.442Z,5.87
2018-01-31T04:09:51.252Z,7.47
2018-01-31T04:12:18.937Z,8.90
2018-01-31T04:14:46.771Z,14.33
2018-01-31T04:17:14.562Z,8.63
2018-01-31T04:19:43.178Z,8.00
2018-01-31T04:22:10.977Z,7.00
2018-01-31T04:24:38.727Z,7.27
2018-01-31T04:27:06.579Z,6.77
2018-01-31T04:29:34.336Z,6.47
2018-01-31T04:32:02.206Z,7.30
2018-01-31T04:34:29.987Z,6.73
2018-01-31T04:36:57.870Z,7.00
2018-01-31T04:39:25.761Z,7.47
2018-01-31T04:41:53.514Z,8.00
2018-01-31T04:44:21.323Z,7.70
2018-01-31T04:46:49.156Z,7.03
2018-01-31T04:49:16.994Z,7.33
2018-01-31T04:51:44.735Z,6.93
2018-01-31T04:54:12.555Z,7.20
2018-01-31T04:56:40.277Z,6.83
2018-01-31T04:59:08.073Z,6.50
2018-01-31T05:01:35.834Z,7.40
2018-01-31T05:04:03.635Z,6.73
2018-01-31T05:06:32.166Z,7.30
2018-01-31T05:09:00.021Z,6.90
2018-01-31T05:11:27.804Z,7.80
2018-01-31T05:13:55.607Z,7.20
2018-01-31T05:16:24.335Z,7.60
2018-01-31T05:18:52.861Z,6.87
2018-01-31T05:21:20.914Z,7.43
2018-01-31T05:23:49.573Z,7.77
2018-01-31T05:26:17.283Z,7.40
2018-01-31T05:28:45.640Z,7.53
2018-01-31T05:31:13.544Z,7.00
2018-01-31T05:33:42.054Z,7.27
2018-01-31T05:36:09.850Z,6.97
2018-01-31T05:38:37.635Z,7.00
2018-01-31T05:41:05.370Z,8.00
2018-01-31T05:43:34.055Z,7.40
2018-01-31T05:46:01.782Z,7.43
2018-01-31T05:48:29.526Z,8.13
2018-01-31T05:50:58.155Z,7.83
2018-01-31T05:53:25.975Z,8.53
2018-01-31T05:55:54.463Z,8.40
2018-01-31T05:58:23.258Z,7.87
2018-01-31T06:00:51.795Z,8.10
2018-01-31T06:03:19.619Z,7.03
2018-01-31T06:05:47.366Z,7.07
2018-01-31T06:08:15.082Z,7.70
2018-01-31T06:10:42.941Z,6.83
2018-01-31T06:13:10.726Z,6.97
2018-01-31T06:15:39.286Z,8.67
2018-01-31T06:18:07.142Z,8.07
2018-01-31T06:20:34.881Z,7.40
2018-01-31T06:23:03.413Z,7.67
2018-01-31T06:25:31.233Z,7.30
2018-01-31T06:27:59.010Z,7.43
2018-01-31T06:30:26.810Z,7.63
2018-01-31T06:32:54.661Z,7.67
2018-01-31T06:35:22.385Z,8.00
2018-01-31T06:37:50.126Z,7.83
2018-01-31T06:40:17.915Z,8.37
2018-01-31T06:42:46.441Z,8.23
2018-01-31T06:45:14.202Z,7.80
2018-01-31T06:47:42.051Z,7.10
2018-01-31T06:50:09.862Z,7.90
2018-01-31T06:52:37.642Z,7.57
2018-01-31T06:55:05.498Z,7.27
2018-01-31T06:57:33.256Z,8.43
2018-01-31T07:00:01.120Z,8.73
2018-01-31T07:02:28.982Z,9.20
2018-01-31T07:04:57.051Z,9.10
2018-01-31T07:07:24.822Z,9.13
2018-01-31T07:09:52.741Z,9.50
2018-01-31T07:12:20.512Z,9.10
2018-01-31T07:14:48.306Z,9.60
2018-01-31T07:17:16.170Z,10.03
2018-01-31T07:19:43.975Z,11.23
2018-01-31T07:22:12.483Z,11.47
2018-01-31T07:24:40.333Z,9.40
2018-01-31T07:27:08.908Z,10.17
2018-01-31T07:29:36.738Z,10.10
2018-01-31T07:32:04.646Z,9.97
2018-01-31T07:34:33.201Z,10.27
2018-01-31T07:37:00.955Z,10.60
2018-01-31T07:39:28.726Z,9.57
2018-01-31T07:41:56.513Z,9.90
2018-01-31T07:44:24.275Z,9.90
2018-01-31T07:46:52.112Z,10.30
2018-01-31T07:49:19.951Z,9.17
2018-01-31T07:51:47.773Z,9.33
2018-01-31T07:54:15.610Z,9.50
2018-01-31T07:56:43.390Z,9.37
2018-01-31T07:59:11.205Z,9.07
2018-01-31T08:01:38.930Z,9.10
2018-01-31T08:04:06.695Z,8.43
2018-01-31T08:06:34.433Z,8.43
2018-01-31T08:09:02.277Z,9.17
2018-01-31T08:11:30.099Z,10.87
2018-01-31T08:13:57.835Z,10.80
2018-01-31T08:16:25.599Z,9.83
2018-01-31T08:18:53.395Z,9.27
2018-01-31T08:21:22.010Z,9.70
2018-01-31T08:23:49.763Z,8.70
2018-01-31T08:26:17.663Z,8.93
2018-01-31T08:28:45.387Z,9.53
2018-01-31T08:31:13.921Z,11.10
2018-01-31T08:33:41.722Z,9.57
2018-01-31T08:36:09.549Z,10.43
2018-01-31T08:38:37.310Z,8.23
2018-01-31T08:41:05.093Z,9.73
2018-01-31T08:43:32.867Z,10.37
2018-01-31T08:46:00.567Z,11.60
2018-01-31T08:48:29.115Z,10.47
2018-01-31T08:50:56.905Z,9.07
2018-01-31T08:53:25.473Z,9.43
2018-01-31T08:55:53.247Z,9.17
2018-01-31T08:58:21.794Z,9.47
2018-01-31T09:00:49.549Z,9.40
2018-01-31T09:03:17.415Z,9.67
2018-01-31T09:05:45.179Z,8.97
2018-01-31T09:08:12.947Z,9.70
2018-01-31T09:10:40.767Z,9.87
2018-01-31T09:13:09.279Z,7.90
2018-01-31T09:15:37.847Z,8.50
2018-01-31T09:18:05.687Z,10.10
2018-01-31T09:20:34.238Z,10.60
2018-01-31T09:23:02.100Z,9.73
2018-01-31T09:25:29.909Z,9.03
2018-01-31T09:27:58.652Z,9.67
2018-01-31T09:30:26.507Z,8.47
2018-01-31T09:32:54.322Z,8.10
2018-01-31T09:35:22.909Z,7.37
2018-01-31T09:37:51.565Z,6.90
2018-01-31T09:40:19.323Z,6.73
2018-01-31T09:42:47.113Z,6.40
2018-01-31T09:45:15.021Z,5.60
2018-01-31T09:47:42.852Z,5.30
2018-01-31T09:50:10.638Z,5.47
2018-01-31T09:52:38.416Z,5.40
2018-01-31T09:55:06.203Z,6.00
2018-01-31T09:57:33.937Z,7.27
2018-01-31T10:00:01.743Z,7.80
2018-01-31T10:02:29.526Z,6.00
2018-01-31T10:04:57.426Z,6.10
2018-01-31T10:07:25.980Z,6.50
2018-01-31T10:09:53.733Z,6.10
2018-01-31T10:12:21.494Z,5.43
2018-01-31T10:14:49.317Z,6.10
2018-01-31T10:17:17.079Z,5.70
2018-01-31T10:19:44.883Z,5.90
2018-01-31T10:22:12.861Z,5.40
2018-01-31T10:24:40.717Z,5.57
2018-01-31T10:27:08.559Z,5.93
2018-01-31T10:29:36.554Z,6.20
2018-01-31T10:32:04.421Z,6.40
2018-01-31T10:34:32.391Z,5.77
2018-01-31T10:37:00.265Z,5.13
2018-01-31T10:39:27.973Z,5.37
2018-01-31T10:41:56.495Z,4.57
2018-01-31T10:44:24.272Z,4.40
2018-01-31T10:46:52.058Z,4.43
2018-01-31T10:49:19.835Z,4.80
2018-01-31T10:51:48.328Z,3.93
2018-01-31T10:59:12.619Z,4.30
2018-01-31T11:01:40.375Z,5.07
2018-01-31T11:04:08.167Z,4.50
2018-01-31T11:06:36.733Z,4.70
2018-01-31T11:09:04.605Z,4.77
2018-01-31T11:11:32.414Z,5.03
2018-01-31T11:14:00.234Z,4.43
2018-01-31T11:16:27.966Z,4.43
2018-01-31T11:18:55.806Z,4.70
2018-01-31T11:21:23.702Z,4.03
2018-01-31T11:23:51.446Z,4.20
2018-01-31T11:26:19.307Z,4.13
2018-01-31T11:28:47.079Z,3.60
2018-01-31T11:31:14.914Z,4.70
2018-01-31T11:33:43.556Z,4.57
2018-01-31T11:36:11.422Z,5.00
2018-01-31T11:38:39.267Z,7.37
2018-01-31T11:41:07.086Z,5.80
2018-01-31T11:43:35.654Z,6.60
2018-01-31T11:46:04.201Z,5.40
2018-01-31T11:48:31.990Z,6.63
2018-01-31T11:50:59.831Z,6.63
2018-01-31T11:53:27.555Z,6.07
2018-01-31T11:55:56.177Z,4.90
2018-01-31T11:58:23.970Z,6.03
2018-01-31T12:00:51.781Z,5.10
2018-01-31T12:03:20.351Z,4.97
2018-01-31T12:05:48.945Z,4.13
2018-01-31T12:08:17.473Z,3.80
2018-01-31T12:10:45.391Z,4.00
2018-01-31T12:16:26.501Z,4.13
2018-01-31T12:19:06.250Z,3.80
2018-01-31T12:21:43.943Z,4.07
2018-01-31T12:27:26.335Z,4.77
2018-01-31T12:30:05.990Z,4.77
2018-01-31T12:32:45.634Z,4.80
2018-01-31T12:35:25.222Z,4.33
2018-01-31T12:40:56.219Z,4.53
2018-01-31T12:43:23.853Z,3.97
2018-01-31T12:45:51.719Z,4.40
2018-01-31T12:51:27.906Z,4.63
2018-01-31T12:54:07.618Z,4.47
2018-01-31T12:59:46.915Z,4.10
2018-01-31T13:05:18.350Z,5.87
2018-01-31T13:07:57.990Z,5.37
2018-01-31T13:10:37.511Z,5.50
2018-01-31T13:13:17.853Z,4.67
2018-01-31T13:18:57.158Z,5.23
2018-01-31T13:21:36.612Z,4.60
2018-01-31T13:24:16.131Z,4.90
2018-01-31T13:26:55.826Z,4.83
2018-01-31T13:29:24.538Z,4.90
2018-01-31T13:32:04.943Z,4.10
2018-01-31T13:34:44.598Z,4.63
2018-01-31T13:37:30.273Z,4.00
2018-01-31T13:43:14.026Z,4.17
2018-01-31T13:45:53.485Z,3.80
2018-01-31T13:48:33.306Z,4.00
2018-01-31T13:51:13.000Z,4.20
2018-01-31T13:53:53.287Z,4.00
2018-01-31T13:56:32.810Z,4.20
2018-01-31T13:59:13.146Z,4.93
2018-01-31T14:01:52.874Z,4.30
2018-01-31T14:04:43.083Z,3.63
2018-01-31T14:10:25.533Z,4.00
2018-01-31T14:13:05.859Z,4.83
2018-01-31T14:15:45.422Z,3.70
2018-01-31T14:18:26.810Z,3.70
2018-01-31T14:21:06.526Z,3.73
2018-01-31T14:23:46.242Z,3.50
2018-01-31T14:26:25.822Z,3.47
2018-01-31T14:29:05.453Z,4.57
2018-01-31T14:34:46.961Z,3.97
2018-01-31T14:37:14.248Z,3.87
2018-01-31T14:39:42.287Z,3.90
2018-01-31T14:42:10.114Z,4.17
2018-01-31T14:44:37.410Z,4.70
2018-01-31T14:47:04.724Z,4.73
2018-01-31T14:49:31.916Z,4.27
2018-01-31T14:51:59.219Z,5.83
2018-01-31T14:54:26.466Z,4.87
2018-01-31T14:56:53.743Z,4.27
2018-01-31T14:59:20.984Z,4.43
2018-01-31T15:01:48.216Z,4.80
2018-01-31T15:04:22.428Z,4.27
2018-01-31T15:06:50.500Z,4.30
2018-01-31T15:09:18.539Z,3.77
2018-01-31T15:11:45.826Z,4.00
2018-01-31T15:14:13.915Z,3.40
2018-01-31T15:16:41.167Z,3.73
2018-01-31T15:19:08.367Z,3.40
2018-01-31T15:21:35.655Z,2.50
2018-01-31T15:24:03.653Z,2.00
2018-01-31T15:26:30.871Z,1.60
2018-01-31T15:28:58.941Z,2.30
2018-01-31T15:31:26.913Z,2.50
2018-01-31T15:33:55.032Z,1.60
2018-01-31T15:36:22.275Z,1.57
2018-01-31T15:38:49.547Z,1.50
2018-01-31T15:41:16.927Z,1.70
2018-01-31T15:43:44.203Z,1.70
2018-01-31T15:46:12.245Z,1.57
2018-01-31T15:48:39.564Z,1.50
2018-01-31T15:51:06.840Z,1.80
2018-01-31T15:53:34.078Z,1.50
2018-01-31T15:56:01.323Z,1.67
2018-01-31T15:58:28.538Z,1.70
2018-01-31T16:00:55.723Z,1.60
2018-01-31T16:03:22.960Z,1.47
2018-01-31T16:05:50.204Z,3.13
2018-01-31T16:08:18.206Z,2.40
2018-01-31T16:10:45.527Z,2.10
2018-01-31T16:13:13.568Z,1.43
2018-01-31T16:15:40.843Z,1.60
2018-01-31T16:18:09.498Z,1.80
2018-01-31T16:21:00.619Z,1.60
2018-01-31T16:23:28.415Z,1.57
2018-01-31T16:25:57.022Z,1.77
2018-01-31T16:31:35.302Z,1.97
2018-01-31T16:34:03.043Z,1.60
2018-01-31T16:36:30.766Z,1.83
2018-01-31T16:38:58.552Z,4.10
2018-01-31T16:41:26.412Z,10.20
2018-01-31T16:43:54.243Z,1.80
2018-01-31T16:46:22.887Z,1.90
2018-01-31T16:48:50.703Z,1.60
2018-01-31T16:51:19.219Z,2.03
2018-01-31T16:53:46.982Z,1.80
2018-01-31T16:56:14.758Z,1.73
2018-01-31T16:58:42.530Z,1.70
2018-01-31T17:01:10.357Z,3.67
2018-01-31T17:03:38.126Z,3.83
2018-01-31T17:06:05.935Z,2.50
2018-01-31T17:08:33.751Z,2.60
2018-01-31T17:11:01.517Z,3.23
2018-01-31T17:13:29.379Z,3.87
2018-01-31T17:15:57.970Z,4.40
2018-01-31T17:18:25.759Z,4.30
2018-01-31T17:20:53.533Z,5.90
2018-01-31T17:23:21.293Z,5.60
2018-01-31T17:25:59.167Z,6.20
2018-01-31T17:28:26.912Z,5.97
2018-01-31T17:30:55.404Z,6.50
2018-01-31T17:33:23.271Z,6.33
2018-01-31T17:35:51.870Z,24.03
2018-01-31T17:38:19.654Z,25.33
2018-01-31T17:40:47.548Z,6.30
2018-01-31T17:43:15.500Z,5.37
2018-01-31T17:45:43.390Z,5.53
2018-01-31T17:48:11.235Z,7.33
2018-01-31T17:50:39.185Z,9.27
2018-01-31T17:53:07.112Z,5.47
2018-01-31T17:55:35.758Z,3.63
2018-01-31T17:58:03.625Z,3.17
2018-01-31T18:00:31.493Z,3.63
2018-01-31T18:02:59.596Z,3.50
2018-01-31T18:05:28.303Z,3.33
2018-01-31T18:07:56.948Z,3.10
2018-01-31T18:10:24.703Z,2.60
2018-01-31T18:12:52.669Z,3.37
2018-01-31T18:15:20.645Z,7.90
2018-01-31T18:17:48.609Z,38.47
2018-01-31T18:20:16.378Z,8.90
2018-01-31T18:22:45.065Z,8.47
2018-01-31T18:25:12.948Z,3.70
2018-01-31T18:27:41.010Z,3.47
2018-01-31T18:30:09.043Z,2.73
2018-01-31T18:32:36.942Z,2.60
2018-01-31T18:35:04.855Z,3.73
2018-01-31T18:37:33.489Z,3.17
2018-01-31T18:40:01.638Z,3.70
2018-01-31T18:42:29.531Z,3.77
2018-01-31T18:44:57.585Z,3.60
2018-01-31T18:47:25.478Z,3.60
2018-01-31T18:49:53.358Z,3.20
2018-01-31T18:52:21.829Z,3.40
2018-01-31T18:54:49.788Z,4.00
2018-01-31T18:57:17.588Z,5.50
2018-01-31T18:59:46.210Z,4.37
2018-01-31T19:02:14.104Z,5.10
2018-01-31T19:04:41.978Z,4.33
2018-01-31T19:07:10.126Z,4.50
2018-01-31T19:09:38.115Z,4.40
2018-01-31T19:12:06.086Z,4.60
2018-01-31T19:14:34.053Z,5.33
2018-01-31T19:17:01.919Z,5.37
2018-01-31T19:19:29.987Z,5.10
2018-01-31T19:21:57.859Z,6.00
2018-01-31T19:24:25.869Z,5.20
2018-01-31T19:26:54.474Z,6.00
2018-01-31T19:29:22.587Z,7.07
2018-01-31T19:31:50.565Z,7.10
2018-01-31T19:34:18.709Z,8.77
2018-01-31T19:36:46.528Z,8.50
2018-01-31T19:39:15.166Z,8.93
2018-01-31T19:41:42.883Z,8.53
2018-01-31T19:44:11.536Z,8.73
2018-01-31T19:46:39.404Z,8.60
2018-01-31T19:49:07.374Z,8.70
2018-01-31T19:51:35.334Z,7.73
2018-01-31T19:54:03.310Z,8.43
2018-01-31T19:56:31.176Z,9.57
2018-01-31T19:58:59.172Z,8.73
2018-01-31T20:01:27.262Z,9.23
2018-01-31T20:03:56.205Z,9.57
2018-01-31T20:06:24.151Z,9.47
2018-01-31T20:08:51.905Z,9.70
2018-01-31T20:11:19.810Z,9.27
2018-01-31T20:13:47.680Z,8.70
2018-01-31T20:16:15.548Z,9.10
2018-01-31T20:18:43.579Z,8.00
2018-01-31T20:21:11.537Z,7.90
2018-01-31T20:23:39.779Z,7.87
2018-01-31T20:26:07.594Z,9.23
2018-01-31T20:28:35.492Z,8.60
2018-01-31T20:31:03.568Z,9.07
2018-01-31T20:33:31.432Z,7.87
2018-01-31T20:35:59.404Z,7.97
2018-01-31T20:38:27.262Z,7.47
2018-01-31T20:40:55.354Z,7.70
2018-01-31T20:43:23.159Z,8.27
2018-01-31T20:45:51.382Z,8.73
2018-01-31T20:48:19.255Z,8.67
2018-01-31T20:50:47.335Z,9.00
2018-01-31T20:53:15.285Z,8.23
2018-01-31T20:55:43.265Z,8.77
2018-01-31T20:58:11.224Z,8.73
2018-01-31T21:00:39.369Z,8.50
2018-01-31T21:03:07.373Z,7.93
2018-01-31T21:05:35.263Z,8.57
2018-01-31T21:08:03.937Z,8.17
2018-01-31T21:10:31.895Z,7.67
2018-01-31T21:12:59.857Z,9.37
2018-01-31T21:15:27.726Z,8.30
2018-01-31T21:17:55.594Z,8.83
2018-01-31T21:20:23.468Z,7.67
2018-01-31T21:22:51.428Z,7.07
2018-01-31T21:25:19.400Z,7.03
2018-01-31T21:27:47.374Z,7.90
2018-01-31T21:30:15.496Z,7.60
2018-01-31T21:32:43.410Z,8.50
2018-01-31T21:35:11.276Z,7.73
2018-01-31T21:37:39.449Z,6.93
2018-01-31T21:40:07.427Z,7.63
2018-01-31T21:42:35.182Z,7.77
2018-01-31T21:45:03.049Z,7.77
2018-01-31T21:47:31.122Z,7.10
2018-01-31T21:49:59.097Z,6.90
2018-01-31T21:52:27.068Z,7.17
2018-01-31T21:54:55.298Z,7.67
2018-01-31T21:57:23.314Z,7.17
2018-01-31T21:59:51.385Z,7.40
2018-01-31T22:02:19.762Z,7.77
2018-01-31T22:04:47.698Z,7.40
2018-01-31T22:07:15.613Z,7.47
2018-01-31T22:09:43.459Z,6.90
2018-01-31T22:12:11.433Z,6.70
2018-01-31T22:14:39.416Z,6.73
2018-01-31T22:17:07.382Z,6.10
2018-01-31T22:19:35.590Z,7.43
2018-01-31T22:22:04.227Z,6.77
2018-01-31T22:24:32.242Z,8.50
2018-01-31T22:27:01.095Z,7.90
2018-01-31T22:29:29.059Z,7.90
2018-01-31T22:31:57.027Z,6.77
2018-01-31T22:34:25.376Z,6.97
2018-01-31T22:36:53.294Z,6.50
2018-01-31T22:39:21.959Z,6.07
2018-01-31T22:41:49.826Z,6.43
2018-01-31T22:44:17.694Z,6.70
2018-01-31T22:46:45.785Z,6.47
2018-01-31T22:49:13.846Z,6.70
2018-01-31T22:51:41.891Z,6.43
2018-01-31T22:54:09.709Z,11.70
2018-01-31T22:56:38.510Z,8.00
2018-01-31T22:59:07.226Z,6.80
2018-01-31T23:01:35.023Z,6.37
2018-01-31T23:04:04.048Z,7.10
2018-01-31T23:06:32.654Z,6.43
2018-01-31T23:09:00.403Z,7.07
2018-01-31T23:11:34.694Z,6.07
2018-01-31T23:14:08.094Z,8.50
2018-01-31T23:16:36.041Z,10.63
2018-01-31T23:19:04.135Z,5.77
2018-01-31T23:21:31.978Z,8.53
2018-01-31T23:23:59.948Z,9.33
2018-01-31T23:26:27.871Z,10.03
2018-01-31T23:28:56.502Z,9.60
2018-01-31T23:31:24.488Z,11.90
2018-01-31T23:33:52.442Z,5.50
2018-01-31T23:36:20.249Z,5.77
2018-01-31T23:38:48.255Z,5.67
2018-01-31T23:41:16.086Z,5.43
2018-01-31T23:43:44.727Z,5.67
2018-01-31T23:46:12.668Z,5.40
2018-01-31T23:48:40.570Z,5.20
2018-01-31T23:51:08.532Z,5.80
2018-01-31T23:53:36.453Z,5.40
2018-01-31T23:56:05.086Z,5.70
2018-01-31T23:58:33.055Z,5.47
